createdAt,value
2019-05-17T00:01:40.490Z,10.29
2019-05-17T00:04:07.435Z,10.28
2019-05-17T00:06:36.806Z,10.47
2019-05-17T00:09:06.952Z,10.47
2019-05-17T00:11:34.120Z,10.18
2019-05-17T00:14:01.100Z,10.15
2019-05-17T00:16:28.179Z,10.15
2019-05-17T00:18:56.800Z,10.03
2019-05-17T00:21:24.160Z,9.98
2019-05-17T00:23:51.241Z,10.23
2019-05-17T00:26:18.390Z,10.14
2019-05-17T00:28:46.921Z,9.92
2019-05-17T00:31:14.059Z,9.77
2019-05-17T00:33:40.838Z,9.85
2019-05-17T00:36:07.642Z,9.87
2019-05-17T00:38:47.894Z,9.85
2019-05-17T00:41:03.650Z,9.78
2019-05-17T00:43:30.528Z,9.82
2019-05-17T00:45:57.585Z,9.78
2019-05-17T00:48:26.474Z,9.63
2019-05-17T00:50:54.339Z,9.56
2019-05-17T00:53:21.256Z,9.51
2019-05-17T00:55:48.205Z,9.42
2019-05-17T00:58:17.305Z,9.32
2019-05-17T01:00:43.985Z,9.30
2019-05-17T01:03:10.960Z,9.40
2019-05-17T01:05:37.767Z,9.27
2019-05-17T01:08:07.141Z,9.31
2019-05-17T01:10:33.754Z,9.14
2019-05-17T01:13:00.694Z,8.76
2019-05-17T01:15:27.601Z,8.43
2019-05-17T01:17:56.312Z,8.45
2019-05-17T01:20:23.531Z,8.36
2019-05-17T01:22:50.326Z,8.33
2019-05-17T01:25:17.905Z,8.39
2019-05-17T01:27:47.220Z,8.55
2019-05-17T01:30:17.546Z,8.58
2019-05-17T01:32:46.432Z,8.63
2019-05-17T01:35:16.509Z,8.49
2019-05-17T01:37:42.738Z,8.28
2019-05-17T01:40:10.678Z,8.30
2019-05-17T01:42:37.684Z,8.36
2019-05-17T01:45:07.296Z,8.36
2019-05-17T01:47:36.863Z,8.38
2019-05-17T01:50:08.494Z,8.24
2019-05-17T01:52:36.972Z,8.28
2019-05-17T01:55:06.705Z,8.29
2019-05-17T01:57:33.634Z,8.28
2019-05-17T02:00:00.409Z,8.36
2019-05-17T02:02:29.668Z,8.21
2019-05-17T02:04:57.066Z,8.11
2019-05-17T02:07:24.049Z,8.03
2019-05-17T02:09:51.174Z,7.68
2019-05-17T02:12:17.971Z,7.61
2019-05-17T02:14:46.790Z,7.48
2019-05-17T02:17:14.154Z,7.74
2019-05-17T02:19:41.208Z,7.73
2019-05-17T02:22:08.222Z,8.00
2019-05-17T02:24:37.007Z,7.86
2019-05-17T02:27:04.670Z,7.80
2019-05-17T02:29:32.220Z,7.49
2019-05-17T02:32:03.533Z,7.23
2019-05-17T02:34:28.607Z,7.52
2019-05-17T02:36:56.163Z,7.43
2019-05-17T02:39:23.501Z,7.41
2019-05-17T02:41:53.175Z,7.63
2019-05-17T02:44:19.355Z,7.65
2019-05-17T02:46:46.192Z,7.65
2019-05-17T02:49:13.885Z,7.44
2019-05-17T02:51:43.163Z,7.38
2019-05-17T02:54:13.142Z,7.45
2019-05-17T02:56:39.324Z,7.47
2019-05-17T02:59:06.485Z,7.55
2019-05-17T03:01:33.722Z,7.26
2019-05-17T03:04:04.006Z,7.07
2019-05-17T03:06:32.566Z,7.25
2019-05-17T03:08:58.437Z,7.28
2019-05-17T03:11:25.709Z,7.14
2019-05-17T03:13:52.823Z,7.11
2019-05-17T03:16:23.416Z,7.04
2019-05-17T03:18:48.877Z,7.25
2019-05-17T03:21:16.154Z,7.36
2019-05-17T03:23:43.753Z,7.14
2019-05-17T03:26:13.043Z,7.13
2019-05-17T03:28:42.687Z,7.02
2019-05-17T03:31:11.357Z,7.02
2019-05-17T03:33:39.135Z,7.03
2019-05-17T03:36:07.492Z,7.32
2019-05-17T03:38:34.654Z,7.21
2019-05-17T03:41:13.489Z,7.21
2019-05-17T03:43:34.860Z,7.23
2019-05-17T03:46:02.708Z,7.10
2019-05-17T03:48:29.028Z,7.22
2019-05-17T03:50:55.831Z,6.94
2019-05-17T03:53:23.038Z,6.81
2019-05-17T03:55:53.753Z,6.81
2019-05-17T03:58:19.443Z,6.94
2019-05-17T04:00:46.228Z,7.06
2019-05-17T04:03:13.745Z,7.21
2019-05-17T04:05:42.998Z,7.40
2019-05-17T04:08:13.635Z,7.27
2019-05-17T04:10:42.381Z,7.44
2019-05-17T04:13:08.260Z,7.56
2019-05-17T04:15:35.397Z,7.35
2019-05-17T04:18:04.114Z,7.40
2019-05-17T04:20:33.200Z,7.40
2019-05-17T04:23:04.005Z,7.28
2019-05-17T04:25:33.086Z,7.31
2019-05-17T04:27:58.751Z,7.56
2019-05-17T04:30:25.638Z,7.42
2019-05-17T04:32:53.010Z,7.43
2019-05-17T04:35:22.976Z,7.38
2019-05-17T04:37:49.268Z,7.39
2019-05-17T04:40:16.242Z,7.42
2019-05-17T04:42:44.105Z,7.45
2019-05-17T04:45:12.894Z,7.49
2019-05-17T04:47:43.693Z,7.61
2019-05-17T04:50:12.941Z,7.56
2019-05-17T04:52:42.488Z,7.45
2019-05-17T04:55:08.286Z,7.39
2019-05-17T04:57:35.197Z,7.38
2019-05-17T05:00:07.604Z,7.43
2019-05-17T05:02:34.522Z,7.52
2019-05-17T05:05:03.243Z,7.54
2019-05-17T05:07:33.328Z,7.59
2019-05-17T05:10:02.659Z,7.69
2019-05-17T05:12:28.481Z,7.73
2019-05-17T05:14:55.424Z,7.95
2019-05-17T05:17:25.589Z,7.98
2019-05-17T05:19:53.191Z,8.01
2019-05-17T05:22:22.510Z,8.17
2019-05-17T05:24:48.880Z,8.33
2019-05-17T05:27:15.667Z,8.51
2019-05-17T05:29:44.562Z,8.53
2019-05-17T05:32:11.910Z,8.61
2019-05-17T05:34:38.863Z,8.67
2019-05-17T05:37:06.587Z,8.66
2019-05-17T05:39:33.944Z,8.68
2019-05-17T05:42:07.808Z,8.74
2019-05-17T05:44:31.960Z,8.80
2019-05-17T05:46:58.964Z,8.88
2019-05-17T05:49:26.386Z,9.02
2019-05-17T05:51:53.147Z,9.07
2019-05-17T05:54:22.401Z,9.12
2019-05-17T05:56:49.266Z,9.21
2019-05-17T05:59:16.469Z,9.26
2019-05-17T06:01:43.474Z,9.34
2019-05-17T06:04:11.746Z,9.50
2019-05-17T06:06:38.916Z,9.63
2019-05-17T06:09:07.835Z,9.64
2019-05-17T06:11:34.839Z,9.69
2019-05-17T06:14:01.874Z,9.80
2019-05-17T06:16:28.618Z,10.00
2019-05-17T06:18:56.295Z,10.15
2019-05-17T06:21:24.039Z,10.21
2019-05-17T06:23:51.652Z,10.31
2019-05-17T06:26:18.995Z,10.37
2019-05-17T06:28:46.002Z,10.48
2019-05-17T06:31:15.162Z,10.58
2019-05-17T06:33:42.370Z,10.63
2019-05-17T06:36:09.606Z,10.67
2019-05-17T06:38:36.754Z,10.77
2019-05-17T06:41:04.068Z,10.90
2019-05-17T06:43:32.263Z,10.90
2019-05-17T06:46:02.081Z,10.99
2019-05-17T06:48:31.870Z,10.97
2019-05-17T06:50:59.166Z,11.01
2019-05-17T06:53:26.318Z,11.04
2019-05-17T06:55:53.778Z,11.14
2019-05-17T06:58:22.276Z,11.21
2019-05-17T07:00:49.742Z,11.32
2019-05-17T07:03:16.716Z,11.41
2019-05-17T07:05:45.490Z,11.52
2019-05-17T07:08:12.507Z,11.57
2019-05-17T07:10:40.076Z,11.65
2019-05-17T07:13:07.159Z,11.69
2019-05-17T07:15:44.696Z,11.80
2019-05-17T07:18:03.871Z,11.96
2019-05-17T07:20:30.843Z,12.08
2019-05-17T07:23:00.396Z,12.25
2019-05-17T07:25:27.313Z,12.40
2019-05-17T07:27:54.081Z,12.51
2019-05-17T07:30:23.025Z,12.55
2019-05-17T07:32:51.201Z,12.66
2019-05-17T07:35:19.778Z,12.71
2019-05-17T07:37:46.854Z,12.79
2019-05-17T07:40:14.426Z,12.83
2019-05-17T07:42:41.229Z,12.93
2019-05-17T07:45:10.163Z,13.02
2019-05-17T07:47:40.121Z,13.06
2019-05-17T07:50:10.830Z,13.13
2019-05-17T07:52:39.565Z,13.33
2019-05-17T07:55:06.224Z,13.43
2019-05-17T07:57:33.282Z,13.43
2019-05-17T08:00:00.196Z,13.47
2019-05-17T08:02:27.247Z,13.62
2019-05-17T08:04:54.115Z,13.72
2019-05-17T08:07:20.989Z,13.82
2019-05-17T08:09:50.473Z,13.90
2019-05-17T08:12:17.002Z,13.93
2019-05-17T08:14:43.944Z,14.11
2019-05-17T08:17:10.990Z,14.23
2019-05-17T08:19:40.120Z,14.36
2019-05-17T08:22:06.862Z,14.38
2019-05-17T08:24:33.713Z,14.26
2019-05-17T08:27:01.517Z,14.29
2019-05-17T08:29:29.724Z,14.35
2019-05-17T08:31:57.120Z,14.53
2019-05-17T08:34:49.538Z,14.47
2019-05-17T08:37:16.418Z,14.55
2019-05-17T08:39:46.401Z,14.59
2019-05-17T08:42:13.228Z,14.81
2019-05-17T08:44:40.148Z,15.10
2019-05-17T08:47:06.938Z,15.12
2019-05-17T08:49:34.195Z,15.07
2019-05-17T08:52:01.024Z,15.24
2019-05-17T08:54:30.448Z,15.37
2019-05-17T08:56:57.411Z,15.30
2019-05-17T08:59:24.352Z,15.31
2019-05-17T09:01:51.746Z,15.58
2019-05-17T09:04:20.158Z,15.74
2019-05-17T09:06:47.408Z,15.88
2019-05-17T09:09:20.314Z,15.92
2019-05-17T09:11:47.209Z,15.89
2019-05-17T09:14:16.363Z,16.02
2019-05-17T09:16:43.286Z,16.16
2019-05-17T09:19:10.265Z,16.17
2019-05-17T09:21:39.573Z,16.20
2019-05-17T09:24:05.996Z,16.35
2019-05-17T09:26:32.793Z,16.43
2019-05-17T09:29:01.280Z,16.43
2019-05-17T09:31:29.887Z,16.48
2019-05-17T09:33:57.234Z,16.39
2019-05-17T09:36:25.000Z,16.49
2019-05-17T09:38:52.110Z,16.85
2019-05-17T09:41:20.018Z,17.04
2019-05-17T09:44:07.721Z,16.87
2019-05-17T09:46:24.872Z,16.91
2019-05-17T09:48:51.893Z,17.01
2019-05-17T09:51:19.594Z,17.15
2019-05-17T09:53:49.401Z,17.18
2019-05-17T09:56:16.064Z,17.19
2019-05-17T09:58:43.339Z,17.27
2019-05-17T10:01:15.335Z,17.06
2019-05-17T10:03:42.470Z,17.11
2019-05-17T10:06:09.761Z,17.36
2019-05-17T10:08:38.923Z,17.33
2019-05-17T10:11:09.663Z,17.57
2019-05-17T10:13:35.087Z,17.77
2019-05-17T10:16:01.981Z,17.81
2019-05-17T10:18:29.569Z,17.91
2019-05-17T10:20:56.546Z,17.76
2019-05-17T10:23:23.968Z,17.72
2019-05-17T10:25:50.929Z,18.04
2019-05-17T10:28:20.347Z,17.81
2019-05-17T10:30:46.982Z,17.76
2019-05-17T10:33:13.947Z,18.02
2019-05-17T10:35:41.680Z,18.05
2019-05-17T10:38:10.308Z,18.30
2019-05-17T10:40:40.545Z,18.65
2019-05-17T10:43:09.834Z,18.85
2019-05-17T10:45:36.301Z,18.81
2019-05-17T10:48:03.766Z,18.96
2019-05-17T10:50:30.772Z,19.03
2019-05-17T10:53:00.217Z,19.21
2019-05-17T10:55:26.874Z,19.41
2019-05-17T10:57:53.684Z,19.59
2019-05-17T11:00:21.477Z,19.46
2019-05-17T11:02:53.132Z,19.54
2019-05-17T11:05:19.941Z,19.65
2019-05-17T11:07:53.902Z,19.77
2019-05-17T11:10:20.829Z,19.64
2019-05-17T11:12:48.031Z,19.85
2019-05-17T11:15:15.215Z,19.80
2019-05-17T11:17:42.893Z,19.66
2019-05-17T11:20:10.965Z,19.67
2019-05-17T11:22:37.955Z,20.02
2019-05-17T11:25:05.698Z,20.19
2019-05-17T11:27:32.875Z,20.15
2019-05-17T11:30:00.017Z,20.52
2019-05-17T11:32:26.739Z,20.68
2019-05-17T11:34:54.247Z,20.78
2019-05-17T11:37:21.110Z,20.84
2019-05-17T11:39:48.483Z,20.87
2019-05-17T11:42:15.478Z,20.65
2019-05-17T11:44:44.531Z,20.72
2019-05-17T11:47:11.415Z,20.32
2019-05-17T11:49:38.250Z,20.14
2019-05-17T11:52:05.564Z,20.26
2019-05-17T11:54:32.860Z,20.71
2019-05-17T11:56:59.689Z,20.74
2019-05-17T11:59:26.471Z,20.93
2019-05-17T12:01:53.444Z,21.07
2019-05-17T12:04:20.637Z,21.51
2019-05-17T12:06:47.797Z,21.32
2019-05-17T12:09:15.157Z,20.93
2019-05-17T12:11:41.994Z,20.47
2019-05-17T12:14:10.505Z,20.21
2019-05-17T12:16:37.647Z,19.79
2019-05-17T12:19:04.656Z,19.77
2019-05-17T12:21:31.651Z,19.80
2019-05-17T12:23:58.605Z,19.73
2019-05-17T12:26:25.540Z,20.03
2019-05-17T12:28:52.442Z,20.27
2019-05-17T12:31:21.452Z,20.42
2019-05-17T12:33:48.868Z,21.10
2019-05-17T12:36:16.181Z,21.70
2019-05-17T12:38:43.069Z,21.76
2019-05-17T12:41:11.042Z,21.29
2019-05-17T12:43:37.840Z,21.32
2019-05-17T12:46:05.252Z,21.32
2019-05-17T12:48:32.109Z,20.77
2019-05-17T12:50:59.396Z,20.68
2019-05-17T12:53:26.278Z,21.16
2019-05-17T12:55:53.379Z,21.32
2019-05-17T12:58:20.379Z,21.09
2019-05-17T13:00:47.605Z,21.24
2019-05-17T13:03:14.346Z,21.25
2019-05-17T13:05:41.240Z,21.75
2019-05-17T13:08:08.184Z,21.90
2019-05-17T13:10:35.259Z,21.75
2019-05-17T13:13:02.410Z,21.59
2019-05-17T13:15:29.408Z,21.46
2019-05-17T13:17:57.443Z,21.23
2019-05-17T13:20:24.523Z,21.01
2019-05-17T13:22:53.935Z,20.84
2019-05-17T13:25:20.992Z,20.72
2019-05-17T13:27:48.325Z,20.63
2019-05-17T13:30:16.595Z,20.46
2019-05-17T13:32:43.595Z,20.29
2019-05-17T13:35:11.472Z,20.26
2019-05-17T13:37:38.371Z,20.26
2019-05-17T13:40:22.103Z,20.28
2019-05-17T13:42:40.250Z,20.33
2019-05-17T13:45:08.224Z,20.49
2019-05-17T13:47:35.265Z,20.89
2019-05-17T13:50:07.408Z,21.29
2019-05-17T13:52:34.828Z,21.18
2019-05-17T13:55:06.077Z,20.89
2019-05-17T13:57:33.392Z,20.73
2019-05-17T14:00:00.371Z,20.62
2019-05-17T14:02:27.356Z,20.52
2019-05-17T14:04:54.312Z,20.45
2019-05-17T14:07:24.530Z,20.35
2019-05-17T14:09:51.293Z,20.21
2019-05-17T14:12:18.166Z,20.09
2019-05-17T14:14:44.936Z,19.98
2019-05-17T14:17:11.726Z,19.93
2019-05-17T14:19:43.075Z,19.86
2019-05-17T14:22:10.353Z,19.83
2019-05-17T14:24:37.685Z,19.79
2019-05-17T14:27:04.928Z,19.66
2019-05-17T14:29:31.972Z,19.53
2019-05-17T14:32:01.341Z,19.38
2019-05-17T14:34:28.236Z,19.27
2019-05-17T14:36:55.092Z,19.04
2019-05-17T14:39:22.795Z,18.49
2019-05-17T14:41:49.733Z,17.66
2019-05-17T14:44:16.745Z,17.25
2019-05-17T14:46:44.049Z,17.08
2019-05-17T14:49:11.012Z,16.96
2019-05-17T14:51:37.804Z,16.67
2019-05-17T14:54:06.879Z,16.49
2019-05-17T14:56:33.727Z,16.35
2019-05-17T14:59:00.829Z,16.29
2019-05-17T15:01:27.929Z,16.16
2019-05-17T15:03:54.849Z,16.21
2019-05-17T15:06:21.822Z,16.18
2019-05-17T15:08:48.878Z,16.06
2019-05-17T15:11:18.147Z,15.94
2019-05-17T15:13:45.550Z,15.62
2019-05-17T15:16:12.600Z,15.44
2019-05-17T15:18:39.431Z,15.52
2019-05-17T15:21:06.670Z,15.61
2019-05-17T15:23:33.982Z,15.55
2019-05-17T15:26:01.322Z,15.61
2019-05-17T15:28:28.210Z,15.81
2019-05-17T15:30:55.153Z,15.98
2019-05-17T15:33:22.140Z,15.93
2019-05-17T15:35:49.151Z,15.96
2019-05-17T15:38:16.180Z,16.04
2019-05-17T15:40:44.911Z,15.91
2019-05-17T15:43:12.009Z,15.79
2019-05-17T15:45:41.068Z,15.85
2019-05-17T15:48:10.172Z,15.81
2019-05-17T15:50:37.373Z,15.81
2019-05-17T15:53:04.507Z,15.83
2019-05-17T15:55:31.629Z,15.90
2019-05-17T15:57:58.600Z,15.86
2019-05-17T16:00:25.598Z,15.92
2019-05-17T16:02:52.564Z,15.83
2019-05-17T16:05:19.349Z,15.85
2019-05-17T16:07:46.150Z,15.86
2019-05-17T16:10:13.657Z,15.88
2019-05-17T16:12:40.719Z,15.97
2019-05-17T16:15:08.712Z,16.09
2019-05-17T16:17:38.870Z,16.13
2019-05-17T16:20:10.350Z,16.16
2019-05-17T16:22:37.410Z,16.22
2019-05-17T16:25:05.937Z,16.23
2019-05-17T16:27:33.089Z,16.28
2019-05-17T16:30:00.043Z,16.25
2019-05-17T16:32:27.256Z,16.18
2019-05-17T16:34:54.306Z,16.16
2019-05-17T16:37:21.550Z,16.19
2019-05-17T16:39:48.565Z,16.15
2019-05-17T16:42:15.473Z,16.16
2019-05-17T16:44:42.412Z,16.29
2019-05-17T16:47:11.372Z,16.28
2019-05-17T16:49:38.471Z,16.25
2019-05-17T16:52:05.482Z,16.29
2019-05-17T16:54:32.854Z,16.34
2019-05-17T16:57:02.778Z,16.40
2019-05-17T16:59:29.836Z,16.43
2019-05-17T17:01:58.004Z,16.46
2019-05-17T17:04:25.004Z,16.46
2019-05-17T17:06:52.082Z,16.49
2019-05-17T17:09:19.509Z,16.49
2019-05-17T17:11:46.981Z,16.50
2019-05-17T17:14:13.961Z,16.49
2019-05-17T17:16:40.956Z,16.51
2019-05-17T17:19:08.049Z,16.42
2019-05-17T17:21:38.258Z,16.38
2019-05-17T17:24:08.412Z,16.44
2019-05-17T17:26:35.677Z,16.47
2019-05-17T17:29:03.359Z,16.57
2019-05-17T17:31:32.570Z,16.60
2019-05-17T17:33:59.487Z,16.64
2019-05-17T17:36:26.444Z,16.64
2019-05-17T17:38:53.837Z,16.60
2019-05-17T17:41:21.215Z,16.47
2019-05-17T17:43:57.993Z,16.38
2019-05-17T17:46:17.738Z,16.43
2019-05-17T17:48:45.890Z,16.42
2019-05-17T17:51:13.270Z,16.45
2019-05-17T17:53:40.252Z,16.31
2019-05-17T17:56:07.445Z,16.20
2019-05-17T17:58:34.723Z,16.14
2019-05-17T18:01:02.282Z,16.08
2019-05-17T18:03:31.737Z,15.85
2019-05-17T18:06:03.665Z,15.78
2019-05-17T18:08:29.186Z,15.82
2019-05-17T18:10:56.093Z,15.83
2019-05-17T18:13:23.393Z,15.82
2019-05-17T18:15:50.629Z,15.76
2019-05-17T18:18:17.587Z,15.74
2019-05-17T18:20:45.109Z,15.73
2019-05-17T18:23:12.332Z,15.66
2019-05-17T18:25:42.205Z,15.65
2019-05-17T18:28:11.244Z,15.60
2019-05-17T18:30:38.879Z,15.47
2019-05-17T18:33:06.274Z,15.41
2019-05-17T18:35:34.262Z,15.43
2019-05-17T18:38:01.664Z,15.39
2019-05-17T18:40:30.067Z,15.29
2019-05-17T18:42:57.265Z,15.25
2019-05-17T18:45:24.774Z,15.21
2019-05-17T18:47:51.901Z,15.25
2019-05-17T18:50:20.835Z,15.15
2019-05-17T18:52:48.093Z,15.14
2019-05-17T18:55:16.958Z,15.08
2019-05-17T18:57:43.849Z,15.11
2019-05-17T19:00:11.746Z,15.18
2019-05-17T19:02:38.927Z,15.18
2019-05-17T19:05:07.875Z,15.06
2019-05-17T19:07:35.025Z,14.90
2019-05-17T19:10:04.857Z,14.85
2019-05-17T19:12:31.886Z,14.85
2019-05-17T19:15:00.709Z,14.87
2019-05-17T19:17:27.887Z,14.89
2019-05-17T19:19:54.749Z,14.85
2019-05-17T19:22:21.899Z,14.84
2019-05-17T19:24:48.890Z,14.81
2019-05-17T19:27:15.791Z,14.73
2019-05-17T19:29:43.322Z,14.56
2019-05-17T19:32:10.430Z,14.54
2019-05-17T19:34:39.347Z,14.37
2019-05-17T19:37:06.532Z,14.31
2019-05-17T19:39:33.658Z,14.40
2019-05-17T19:42:00.571Z,14.43
2019-05-17T19:44:27.602Z,14.45
2019-05-17T19:46:54.459Z,14.43
2019-05-17T19:49:21.535Z,14.46
2019-05-17T19:51:48.431Z,14.54
2019-05-17T19:54:15.703Z,14.66
2019-05-17T19:56:42.672Z,14.59
2019-05-17T19:59:09.844Z,14.51
2019-05-17T20:01:36.842Z,14.51
2019-05-17T20:04:03.780Z,14.43
2019-05-17T20:06:33.949Z,14.42
2019-05-17T20:09:01.403Z,14.27
2019-05-17T20:11:34.464Z,14.20
2019-05-17T20:14:00.758Z,14.14
2019-05-17T20:16:27.854Z,14.11
2019-05-17T20:18:54.835Z,14.00
2019-05-17T20:21:21.864Z,14.06
2019-05-17T20:23:49.064Z,14.13
2019-05-17T20:26:15.910Z,14.17
2019-05-17T20:28:42.835Z,14.14
2019-05-17T20:31:09.906Z,14.17
2019-05-17T20:33:37.248Z,14.12
2019-05-17T20:36:04.217Z,14.03
2019-05-17T20:38:31.071Z,14.02
2019-05-17T20:40:58.655Z,14.08
2019-05-17T20:43:25.617Z,14.07
2019-05-17T20:45:52.888Z,14.06
2019-05-17T20:48:19.766Z,14.24
2019-05-17T20:50:47.265Z,14.34
2019-05-17T20:53:18.723Z,14.33
2019-05-17T20:55:45.067Z,14.31
2019-05-17T20:58:11.927Z,14.39
2019-05-17T21:00:39.407Z,14.39
2019-05-17T21:03:06.858Z,14.34
2019-05-17T21:05:34.091Z,14.33
2019-05-17T21:08:01.872Z,14.36
2019-05-17T21:10:28.891Z,14.18
2019-05-17T21:12:55.957Z,14.12
2019-05-17T21:15:22.830Z,14.00
2019-05-17T21:17:49.749Z,13.87
2019-05-17T21:20:16.989Z,13.91
2019-05-17T21:22:43.838Z,13.95
2019-05-17T21:25:11.641Z,13.93
2019-05-17T21:27:39.239Z,13.92
2019-05-17T21:30:06.856Z,13.78
2019-05-17T21:32:34.141Z,13.72
2019-05-17T21:35:02.209Z,13.63
2019-05-17T21:37:29.248Z,13.65
2019-05-17T21:39:56.260Z,13.73
2019-05-17T21:42:23.280Z,13.67
2019-05-17T21:44:50.376Z,13.47
2019-05-17T21:47:17.268Z,13.45
2019-05-17T21:49:45.062Z,13.45
2019-05-17T21:52:12.188Z,13.50
2019-05-17T21:54:39.256Z,13.45
2019-05-17T21:57:08.164Z,13.41
2019-05-17T21:59:35.268Z,13.47
2019-05-17T22:02:02.345Z,13.62
2019-05-17T22:04:29.731Z,13.36
2019-05-17T22:06:56.816Z,13.23
2019-05-17T22:09:24.035Z,13.20
2019-05-17T22:11:53.357Z,13.27
2019-05-17T22:14:20.526Z,13.24
2019-05-17T22:16:47.551Z,13.16
2019-05-17T22:19:14.413Z,13.19
2019-05-17T22:21:41.382Z,13.20
2019-05-17T22:24:08.503Z,13.14
2019-05-17T22:26:35.288Z,13.09
2019-05-17T22:29:02.739Z,12.99
2019-05-17T22:31:29.963Z,13.08
2019-05-17T22:33:56.935Z,13.04
2019-05-17T22:36:24.121Z,12.91
2019-05-17T22:38:51.075Z,12.93
2019-05-17T22:41:17.888Z,12.98
2019-05-17T22:43:44.858Z,13.05
2019-05-17T22:46:14.330Z,13.01
2019-05-17T22:48:41.535Z,12.95
2019-05-17T22:51:08.449Z,12.96
2019-05-17T22:53:35.270Z,12.84
2019-05-17T22:56:02.384Z,12.81
2019-05-17T22:58:30.461Z,12.83
2019-05-17T23:00:57.712Z,12.96
2019-05-17T23:03:24.521Z,13.10
2019-05-17T23:05:53.372Z,13.18
2019-05-17T23:08:20.215Z,13.21
2019-05-17T23:10:47.250Z,13.22
2019-05-17T23:13:14.328Z,13.16
2019-05-17T23:16:00.674Z,13.02
2019-05-17T23:18:30.161Z,12.85
2019-05-17T23:20:57.146Z,12.71
2019-05-17T23:23:24.113Z,12.81
2019-05-17T23:25:51.361Z,12.88
2019-05-17T23:28:18.415Z,12.85
2019-05-17T23:30:45.576Z,12.94
2019-05-17T23:33:12.511Z,13.05
2019-05-17T23:35:39.455Z,13.13
2019-05-17T23:38:08.795Z,13.15
2019-05-17T23:40:36.015Z,13.04
2019-05-17T23:43:03.027Z,12.87
2019-05-17T23:45:32.666Z,12.76
2019-05-17T23:47:59.554Z,12.79
2019-05-17T23:50:26.430Z,12.82
2019-05-17T23:52:53.995Z,12.88
2019-05-17T23:55:21.207Z,12.89
2019-05-17T23:57:48.262Z,12.82
